Time;durP1;ratioP1;P1;durP2;ratioP2;P2;SDS_P1;SDS_P2;PMS_P1;PMS_P2;Temp;Humidity;BMP_temperature;BMP_pressure;BME280_temperature;BME280_humidity;BME280_pressure;Samples;Min_cycle;Max_cycle;Signal;HPM_P1;HPM_P2
2022/01/29 00:00:34;;;;;;;28.70;11.35;;;;;;;;;;5146046;27;20039;-59
2022/01/29 00:03:00;;;;;;;32.47;11.48;;;;;;;;;;5147032;27;20047;-59
2022/01/29 00:05:26;;;;;;;28.30;13.85;;;;;;;;;;5146747;27;20051;-59
2022/01/29 00:07:52;;;;;;;32.00;12.63;;;;;;;;;;5146230;27;20062;-59
2022/01/29 00:10:18;;;;;;;25.40;10.68;;;;;;;;;;5146593;27;20039;-58
2022/01/29 00:12:45;;;;;;;42.05;11.18;;;;;;;;;;5146569;27;20086;-59
2022/01/29 00:15:11;;;;;;;28.35;11.48;;;;;;;;;;5146643;27;20047;-59
2022/01/29 00:17:37;;;;;;;31.77;10.95;;;;;;;;;;5144363;27;20677;-59
2022/01/29 00:20:04;;;;;;;34.63;11.43;;;;;;;;;;5146351;27;20035;-59
2022/01/29 00:22:30;;;;;;;24.07;9.80;;;;;;;;;;5145129;27;20120;-58
2022/01/29 00:24:57;;;;;;;33.65;12.73;;;;;;;;;;5146459;27;20039;-59
2022/01/29 00:27:26;;;;;;;24.08;12.10;;;;;;;;;;5145291;27;20043;-59
2022/01/29 00:29:52;;;;;;;26.40;11.38;;;;;;;;;;5146005;27;20085;-60
2022/01/29 00:32:18;;;;;;;34.05;12.23;;;;;;;;;;5152806;27;20051;-59
2022/01/29 00:34:44;;;;;;;31.42;11.95;;;;;;;;;;5146797;27;20050;-59
2022/01/29 00:37:10;;;;;;;31.48;11.02;;;;;;;;;;5145902;27;20035;-59
2022/01/29 00:39:37;;;;;;;27.95;12.00;;;;;;;;;;5147058;27;20123;-59
2022/01/29 00:42:04;;;;;;;26.60;11.80;;;;;;;;;;5146314;27;20070;-59
2022/01/29 00:44:30;;;;;;;28.60;14.40;;;;;;;;;;5146418;27;20070;-59
2022/01/29 00:46:56;;;;;;;26.63;12.90;;;;;;;;;;5160339;27;20098;-59
2022/01/29 00:49:22;;;;;;;36.40;14.23;;;;;;;;;;5156046;27;20150;-59
2022/01/29 00:51:48;;;;;;;24.58;13.55;;;;;;;;;;5145651;27;20099;-59
2022/01/29 00:54:14;;;;;;;27.85;13.25;;;;;;;;;;5157661;27;20050;-60
2022/01/29 00:56:40;;;;;;;28.98;13.65;;;;;;;;;;5167134;27;20038;-59
2022/01/29 00:59:06;;;;;;;28.98;12.93;;;;;;;;;;5167529;27;20126;-60
2022/01/29 01:01:32;;;;;;;23.77;10.80;;;;;;;;;;5167096;27;20053;-59
2022/01/29 01:03:58;;;;;;;27.17;13.60;;;;;;;;;;5158201;27;20050;-59
2022/01/29 01:06:25;;;;;;;36.88;14.18;;;;;;;;;;5145627;27;20059;-59
2022/01/29 01:08:51;;;;;;;31.35;14.27;;;;;;;;;;5146294;27;20422;-59
2022/01/29 01:11:17;;;;;;;48.20;14.43;;;;;;;;;;5146130;27;20075;-59
2022/01/29 01:13:43;;;;;;;31.80;14.65;;;;;;;;;;5152144;27;20063;-59
2022/01/29 01:16:09;;;;;;;31.73;13.95;;;;;;;;;;5165694;27;20184;-59
2022/01/29 01:18:35;;;;;;;35.22;13.55;;;;;;;;;;5167047;27;20111;-59
2022/01/29 01:21:01;;;;;;;33.22;15.57;;;;;;;;;;5166191;27;20053;-59
2022/01/29 01:23:27;;;;;;;34.35;15.27;;;;;;;;;;5166839;27;20039;-59
2022/01/29 01:25:53;;;;;;;37.00;14.68;;;;;;;;;;5159039;27;20043;-59
2022/01/29 01:28:20;;;;;;;33.55;15.55;;;;;;;;;;5145726;27;20141;-59
2022/01/29 01:30:46;;;;;;;35.38;14.38;;;;;;;;;;5145739;27;20046;-59
2022/01/29 01:33:12;;;;;;;31.85;14.48;;;;;;;;;;5145908;27;20044;-59
2022/01/29 01:35:46;;;;;;;30.38;11.95;;;;;;;;;;5144572;27;20043;-59
2022/01/29 01:38:26;;;;;;;23.00;12.40;;;;;;;;;;5145772;27;20106;-59
2022/01/29 01:40:59;;;;;;;37.85;14.85;;;;;;;;;;5159802;27;20039;-59
2022/01/29 01:43:25;;;;;;;27.25;12.20;;;;;;;;;;5166517;27;20038;-59
2022/01/29 01:45:51;;;;;;;33.65;14.70;;;;;;;;;;5166313;27;20074;-59
2022/01/29 01:48:17;;;;;;;43.40;14.65;;;;;;;;;;5166609;27;20098;-59
2022/01/29 01:50:43;;;;;;;30.52;13.57;;;;;;;;;;5165864;27;20323;-59
2022/01/29 01:53:10;;;;;;;37.47;15.65;;;;;;;;;;5166195;27;20051;-59
2022/01/29 01:55:37;;;;;;;33.90;16.88;;;;;;;;;;5157656;27;20042;-58
2022/01/29 01:58:03;;;;;;;32.78;16.08;;;;;;;;;;5145618;27;20047;-60
2022/01/29 02:00:30;;;;;;;44.85;16.63;;;;;;;;;;5145667;27;20054;-59
2022/01/29 02:02:56;;;;;;;43.92;16.40;;;;;;;;;;5145465;27;20065;-59
2022/01/29 02:05:23;;;;;;;38.15;17.30;;;;;;;;;;5145450;27;20111;-59
2022/01/29 02:07:50;;;;;;;38.75;15.45;;;;;;;;;;5144877;27;20074;-59
2022/01/29 02:10:18;;;;;;;38.88;16.40;;;;;;;;;;5163065;27;20063;-59
2022/01/29 02:12:57;;;;;;;34.50;14.77;;;;;;;;;;5166323;27;20053;-59
2022/01/29 02:15:23;;;;;;;;;;;;;;;;;;5166582;27;20122;-59
2022/01/29 02:17:49;;;;;;;32.65;14.80;;;;;;;;;;5165993;27;19919;-59
2022/01/29 02:20:17;;;;;;;39.13;16.48;;;;;;;;;;5165988;27;20069;-59
2022/01/29 02:22:44;;;;;;;35.20;13.68;;;;;;;;;;5165450;27;20129;-59
2022/01/29 02:25:29;;;;;;;38.25;14.02;;;;;;;;;;5146417;27;20057;-59
2022/01/29 02:27:56;;;;;;;23.40;13.52;;;;;;;;;;5145046;28;20490;-59
2022/01/29 02:30:22;;;;;;;25.97;11.30;;;;;;;;;;5145389;28;20122;-59
2022/01/29 02:32:48;;;;;;;28.38;13.23;;;;;;;;;;5145087;28;20391;-59
2022/01/29 02:35:14;;;;;;;25.48;12.23;;;;;;;;;;5144989;27;20167;-59
2022/01/29 02:37:40;;;;;;;20.40;10.60;;;;;;;;;;5145538;27;20078;-59
2022/01/29 02:40:07;;;;;;;27.38;11.52;;;;;;;;;;5146395;27;20035;-59
2022/01/29 02:42:33;;;;;;;30.80;12.32;;;;;;;;;;5145167;28;20114;-59
2022/01/29 02:44:59;;;;;;;39.28;12.38;;;;;;;;;;5144780;28;20043;-59
2022/01/29 02:47:29;;;;;;;33.45;13.63;;;;;;;;;;5144763;28;20043;-59
2022/01/29 02:49:55;;;;;;;24.40;11.57;;;;;;;;;;5145052;27;20051;-59
2022/01/29 02:52:21;;;;;;;30.67;12.68;;;;;;;;;;5159744;27;20047;-59
2022/01/29 02:54:48;;;;;;;36.17;12.25;;;;;;;;;;5169929;27;20043;-59
2022/01/29 02:57:14;;;;;;;37.60;13.48;;;;;;;;;;5170080;27;20111;-59
2022/01/29 02:59:40;;;;;;;32.75;11.88;;;;;;;;;;5169346;27;20046;-59
2022/01/29 03:02:07;;;;;;;29.33;12.32;;;;;;;;;;5169608;27;20117;-60
2022/01/29 03:04:34;;;;;;;35.97;12.77;;;;;;;;;;5169668;27;20046;-59
2022/01/29 03:07:00;;;;;;;30.63;13.10;;;;;;;;;;5157430;27;20629;-59
2022/01/29 03:09:26;;;;;;;32.20;13.18;;;;;;;;;;5148734;27;20097;-59
2022/01/29 03:11:52;;;;;;;26.65;12.13;;;;;;;;;;5148894;27;20039;-60
2022/01/29 03:14:19;;;;;;;29.90;13.05;;;;;;;;;;5146964;27;20043;-59
2022/01/29 03:16:45;;;;;;;30.02;12.63;;;;;;;;;;5148631;27;20055;-59
2022/01/29 03:19:11;;;;;;;30.77;14.05;;;;;;;;;;5148473;27;20098;-59
2022/01/29 03:21:37;;;;;;;23.63;13.73;;;;;;;;;;5148987;27;20035;-59
2022/01/29 03:24:03;;;;;;;35.55;13.93;;;;;;;;;;5148986;27;20059;-60
2022/01/29 03:26:29;;;;;;;31.02;13.70;;;;;;;;;;5148186;27;20089;-59
2022/01/29 03:28:55;;;;;;;32.70;12.52;;;;;;;;;;5148167;27;20043;-60
2022/01/29 03:31:26;;;;;;;35.17;13.30;;;;;;;;;;5148135;27;20039;-59
2022/01/29 03:33:52;;;;;;;30.40;13.90;;;;;;;;;;5148281;27;20142;-59
2022/01/29 03:36:18;;;;;;;30.40;14.07;;;;;;;;;;5147953;27;20095;-59
2022/01/29 03:38:44;;;;;;;23.00;12.60;;;;;;;;;;5148458;27;20103;-60
2022/01/29 03:41:13;;;;;;;34.80;15.05;;;;;;;;;;5148109;27;20047;-59
2022/01/29 03:43:46;;;;;;;35.00;14.80;;;;;;;;;;5143358;27;20051;-59
2022/01/29 03:46:12;;;;;;;25.15;12.38;;;;;;;;;;5127358;27;20039;-60
2022/01/29 03:48:39;;;;;;;32.17;12.80;;;;;;;;;;5127264;28;20047;-59
2022/01/29 03:51:05;;;;;;;27.38;13.40;;;;;;;;;;5162713;27;20121;-59
2022/01/29 03:53:31;;;;;;;36.60;14.90;;;;;;;;;;5169010;27;20076;-59
2022/01/29 03:55:57;;;;;;;31.77;13.15;;;;;;;;;;5168684;27;20118;-60
2022/01/29 03:58:23;;;;;;;26.35;12.95;;;;;;;;;;5168558;27;20060;-59
2022/01/29 04:00:50;;;;;;;32.47;13.07;;;;;;;;;;5168510;27;20102;-59
2022/01/29 04:03:16;;;;;;;32.65;13.05;;;;;;;;;;5166037;27;20042;-59
2022/01/29 04:05:42;;;;;;;23.27;12.52;;;;;;;;;;5167295;27;20055;-59
2022/01/29 04:08:15;;;;;;;24.90;12.02;;;;;;;;;;5168520;27;20043;-59
2022/01/29 04:10:41;;;;;;;33.63;13.00;;;;;;;;;;5151555;27;20095;-59
2022/01/29 04:13:10;;;;;;;24.13;12.70;;;;;;;;;;5147172;27;20047;-59
2022/01/29 04:15:37;;;;;;;34.05;15.10;;;;;;;;;;5147273;27;20102;-59
2022/01/29 04:18:03;;;;;;;25.73;13.38;;;;;;;;;;5152457;27;20066;-60
2022/01/29 04:20:29;;;;;;;33.28;14.52;;;;;;;;;;5168243;27;20055;-59
2022/01/29 04:22:55;;;;;;;30.35;13.02;;;;;;;;;;5168054;27;20039;-59
2022/01/29 04:25:23;;;;;;;26.60;12.73;;;;;;;;;;5155429;27;20047;-59
2022/01/29 04:27:49;;;;;;;25.65;13.30;;;;;;;;;;5147185;27;20057;-59
2022/01/29 04:30:27;;;;;;;26.70;13.73;;;;;;;;;;5146813;27;20057;-59
2022/01/29 04:32:58;;;;;;;37.30;14.18;;;;;;;;;;5147075;27;20047;-59
2022/01/29 04:35:24;;;;;;;27.27;14.40;;;;;;;;;;5147138;27;20114;-59
2022/01/29 04:37:50;;;;;;;29.35;14.43;;;;;;;;;;5152022;27;20113;-59
2022/01/29 04:40:17;;;;;;;23.42;12.38;;;;;;;;;;5166489;27;20039;-59
2022/01/29 04:42:43;;;;;;;34.30;14.48;;;;;;;;;;5167596;27;20125;-59
2022/01/29 04:45:09;;;;;;;26.80;12.52;;;;;;;;;;5167485;27;20129;-60
2022/01/29 04:47:35;;;;;;;27.67;13.80;;;;;;;;;;5167660;27;20148;-59
2022/01/29 04:50:01;;;;;;;27.05;14.55;;;;;;;;;;5167631;27;20058;-59
2022/01/29 04:52:27;;;;;;;31.70;13.68;;;;;;;;;;5157736;27;20499;-59
2022/01/29 04:54:53;;;;;;;33.58;14.15;;;;;;;;;;5146623;27;20066;-59
2022/01/29 04:57:19;;;;;;;25.02;12.85;;;;;;;;;;5146656;27;20130;-59
2022/01/29 04:59:45;;;;;;;28.27;13.65;;;;;;;;;;5146188;27;20035;-59
2022/01/29 05:02:12;;;;;;;35.80;15.98;;;;;;;;;;5146436;27;20393;-59
2022/01/29 05:04:38;;;;;;;26.48;11.80;;;;;;;;;;5146666;27;20047;-59
2022/01/29 05:07:04;;;;;;;25.85;14.23;;;;;;;;;;5156436;27;20043;-59
2022/01/29 05:09:30;;;;;;;26.98;13.68;;;;;;;;;;5167082;27;20068;-59
2022/01/29 05:11:59;;;;;;;23.95;12.90;;;;;;;;;;5167042;27;20052;-59
2022/01/29 05:28:15;;;;;;;22.15;11.35;;;;;;;;;;5102704;28;20059;-59
2022/01/29 05:30:41;;;;;;;27.83;13.73;;;;;;;;;;5102533;28;20131;-59
2022/01/29 05:33:07;;;;;;;25.33;12.73;;;;;;;;;;5102552;28;20051;-59
2022/01/29 05:35:33;;;;;;;28.98;14.05;;;;;;;;;;5113915;27;20596;-59
2022/01/29 05:38:00;;;;;;;26.05;14.50;;;;;;;;;;5122146;28;20051;-59
2022/01/29 05:40:26;;;;;;;29.58;13.15;;;;;;;;;;5122934;28;20059;-59
2022/01/29 05:42:52;;;;;;;38.38;14.57;;;;;;;;;;5122999;28;20048;-59
2022/01/29 05:45:18;;;;;;;35.05;14.70;;;;;;;;;;5126744;27;20072;-59
2022/01/29 05:47:45;;;;;;;24.63;14.38;;;;;;;;;;5143137;27;20039;-59
2022/01/29 05:50:12;;;;;;;25.73;14.27;;;;;;;;;;5143332;27;20463;-59
2022/01/29 05:52:38;;;;;;;32.63;14.93;;;;;;;;;;5142481;27;20083;-59
2022/01/29 05:55:04;;;;;;;32.25;14.52;;;;;;;;;;5140486;27;20124;-59
2022/01/29 05:57:30;;;;;;;24.88;12.82;;;;;;;;;;5122733;28;20057;-59
2022/01/29 05:59:56;;;;;;;25.05;14.20;;;;;;;;;;5123988;28;20054;-59
2022/01/29 06:02:23;;;;;;;25.80;13.90;;;;;;;;;;5124388;28;20073;-59
2022/01/29 06:04:49;;;;;;;26.25;14.20;;;;;;;;;;5131983;27;20126;-59
2022/01/29 06:07:15;;;;;;;22.20;13.15;;;;;;;;;;5165388;27;20066;-59
2022/01/29 06:09:41;;;;;;;21.45;12.55;;;;;;;;;;5164532;27;20043;-60
2022/01/29 06:12:07;;;;;;;38.33;16.38;;;;;;;;;;5166421;27;20043;-59
2022/01/29 06:14:33;;;;;;;28.20;13.75;;;;;;;;;;5165855;27;20038;-59
2022/01/29 06:16:59;;;;;;;25.92;13.88;;;;;;;;;;5163601;27;20051;-59
2022/01/29 06:19:26;;;;;;;28.83;13.48;;;;;;;;;;5145373;27;20099;-59
2022/01/29 06:21:52;;;;;;;21.45;12.27;;;;;;;;;;5144621;28;20057;-59
2022/01/29 06:24:18;;;;;;;24.35;13.15;;;;;;;;;;5145452;27;20070;-59
2022/01/29 06:26:44;;;;;;;24.33;15.20;;;;;;;;;;5168156;27;20067;-59
2022/01/29 06:29:10;;;;;;;26.23;12.20;;;;;;;;;;5170180;27;20548;-59
2022/01/29 06:31:36;;;;;;;26.40;12.45;;;;;;;;;;5170068;27;20050;-58
2022/01/29 06:34:02;;;;;;;25.50;12.98;;;;;;;;;;5170563;27;20043;-58
2022/01/29 06:36:28;;;;;;;26.92;14.45;;;;;;;;;;5167581;27;20038;-59
2022/01/29 06:38:54;;;;;;;24.90;13.30;;;;;;;;;;5170793;27;20050;-58
2022/01/29 06:41:20;;;;;;;26.35;15.02;;;;;;;;;;5169987;27;20119;-59
2022/01/29 06:43:46;;;;;;;24.80;13.50;;;;;;;;;;5169850;27;20043;-58
2022/01/29 06:46:12;;;;;;;21.60;11.80;;;;;;;;;;5151365;27;20047;-58
2022/01/29 06:48:39;;;;;;;29.10;13.63;;;;;;;;;;5149077;27;20049;-59
2022/01/29 06:51:05;;;;;;;26.45;13.60;;;;;;;;;;5148594;27;20047;-60
2022/01/29 06:53:31;;;;;;;25.52;13.02;;;;;;;;;;5149310;27;20043;-60
2022/01/29 06:55:57;;;;;;;22.52;12.25;;;;;;;;;;5149990;27;20035;-59
2022/01/29 06:58:23;;;;;;;26.63;13.13;;;;;;;;;;5148639;27;20112;-59
2022/01/29 07:00:49;;;;;;;20.75;12.07;;;;;;;;;;5148836;27;20043;-60
2022/01/29 07:03:15;;;;;;;23.35;13.10;;;;;;;;;;5155555;27;20334;-59
2022/01/29 07:05:41;;;;;;;32.78;14.88;;;;;;;;;;5169498;27;20078;-59
2022/01/29 07:08:07;;;;;;;24.17;12.57;;;;;;;;;;5169311;27;20043;-59
2022/01/29 07:10:34;;;;;;;29.10;15.10;;;;;;;;;;5169445;27;20043;-59
2022/01/29 07:13:00;;;;;;;25.83;13.95;;;;;;;;;;5164766;27;20068;-60
2022/01/29 07:15:26;;;;;;;25.25;13.63;;;;;;;;;;5148450;27;20035;-59
2022/01/29 07:17:52;;;;;;;24.85;13.40;;;;;;;;;;5148352;27;20039;-60
2022/01/29 07:20:18;;;;;;;26.08;14.27;;;;;;;;;;5149027;27;20047;-60
2022/01/29 07:22:44;;;;;;;30.42;14.15;;;;;;;;;;5149381;27;20126;-60
2022/01/29 07:25:10;;;;;;;25.60;13.32;;;;;;;;;;5168962;27;20478;-60
2022/01/29 07:27:36;;;;;;;19.80;12.25;;;;;;;;;;5169027;27;20048;-60
2022/01/29 07:30:03;;;;;;;23.35;13.02;;;;;;;;;;5168780;27;20043;-60
2022/01/29 07:32:29;;;;;;;21.90;12.40;;;;;;;;;;5166660;27;20110;-61
2022/01/29 07:34:55;;;;;;;29.50;13.20;;;;;;;;;;5155019;27;20226;-59
2022/01/29 07:37:21;;;;;;;28.27;13.40;;;;;;;;;;5167973;27;20073;-59
2022/01/29 07:39:47;;;;;;;25.60;13.48;;;;;;;;;;5169050;27;20074;-60
2022/01/29 07:42:13;;;;;;;32.83;12.57;;;;;;;;;;5168793;27;20060;-60
2022/01/29 07:44:40;;;;;;;20.80;10.63;;;;;;;;;;5163940;27;20455;-60
2022/01/29 07:47:06;;;;;;;23.83;13.25;;;;;;;;;;5148926;27;20062;-60
2022/01/29 07:49:32;;;;;;;20.40;12.82;;;;;;;;;;5156116;27;20071;-60
2022/01/29 07:51:58;;;;;;;24.80;12.98;;;;;;;;;;5168096;27;20520;-60
2022/01/29 07:54:24;;;;;;;26.05;12.07;;;;;;;;;;5168895;27;20050;-60
2022/01/29 07:56:50;;;;;;;28.95;12.70;;;;;;;;;;5153246;27;20035;-60
2022/01/29 07:59:16;;;;;;;20.15;11.63;;;;;;;;;;5147515;27;20102;-60
2022/01/29 08:01:43;;;;;;;17.13;9.18;;;;;;;;;;5147635;27;20123;-60
2022/01/29 08:04:09;;;;;;;17.70;10.70;;;;;;;;;;5147847;27;20047;-60
2022/01/29 08:06:35;;;;;;;20.13;11.00;;;;;;;;;;5147229;27;20115;-60
2022/01/29 08:09:01;;;;;;;19.17;11.13;;;;;;;;;;5147514;27;20112;-60
2022/01/29 08:11:27;;;;;;;25.30;10.90;;;;;;;;;;5147546;27;20511;-60
2022/01/29 08:13:53;;;;;;;22.83;11.00;;;;;;;;;;5147260;27;20094;-60
2022/01/29 08:16:19;;;;;;;21.17;10.63;;;;;;;;;;5148715;27;20043;-60
2022/01/29 08:18:46;;;;;;;18.60;9.60;;;;;;;;;;5147521;27;20047;-60
2022/01/29 08:21:16;;;;;;;19.88;9.60;;;;;;;;;;5146579;27;20043;-60
2022/01/29 08:23:42;;;;;;;21.08;9.43;;;;;;;;;;5147464;27;20049;-58
2022/01/29 08:26:09;;;;;;;19.67;9.65;;;;;;;;;;5153469;27;20039;-58
2022/01/29 08:28:35;;;;;;;17.13;9.05;;;;;;;;;;5162422;27;20436;-59
2022/01/29 08:31:01;;;;;;;11.48;7.90;;;;;;;;;;5149267;27;20047;-59
2022/01/29 08:33:27;;;;;;;21.20;8.88;;;;;;;;;;5166019;27;20074;-59
2022/01/29 08:35:53;;;;;;;18.38;9.15;;;;;;;;;;5151964;27;20046;-60
2022/01/29 08:38:20;;;;;;;16.13;7.85;;;;;;;;;;5160190;27;20103;-58
2022/01/29 08:40:47;;;;;;;13.57;7.35;;;;;;;;;;5164933;27;20077;-61
2022/01/29 08:43:13;;;;;;;16.27;8.18;;;;;;;;;;5153610;27;20192;-59
2022/01/29 08:45:39;;;;;;;20.38;8.00;;;;;;;;;;5153696;27;20118;-61
2022/01/29 08:48:05;;;;;;;17.20;8.13;;;;;;;;;;5164221;27;20046;-58
2022/01/29 08:50:32;;;;;;;14.57;6.93;;;;;;;;;;5146406;27;20388;-59
2022/01/29 08:52:58;;;;;;;12.75;6.72;;;;;;;;;;5153415;27;20039;-60
2022/01/29 08:55:24;;;;;;;11.80;6.07;;;;;;;;;;5158986;27;20096;-60
2022/01/29 08:57:50;;;;;;;14.10;6.20;;;;;;;;;;5146490;27;20049;-61
2022/01/29 09:00:17;;;;;;;12.20;5.38;;;;;;;;;;5153975;27;20444;-60
2022/01/29 09:02:43;;;;;;;18.35;6.43;;;;;;;;;;5165222;27;20045;-58
2022/01/29 09:05:11;;;;;;;16.33;6.18;;;;;;;;;;5160058;27;20058;-59
2022/01/29 09:07:37;;;;;;;8.73;5.38;;;;;;;;;;5146461;27;20096;-58
2022/01/29 09:10:03;;;;;;;12.88;6.65;;;;;;;;;;5146179;27;20120;-59
2022/01/29 09:12:30;;;;;;;17.00;5.85;;;;;;;;;;5154798;27;20042;-59
2022/01/29 09:14:56;;;;;;;15.70;5.40;;;;;;;;;;5153179;27;20116;-59
2022/01/29 09:17:22;;;;;;;13.93;5.90;;;;;;;;;;5153313;27;20042;-60
2022/01/29 09:19:48;;;;;;;9.48;4.65;;;;;;;;;;5145854;27;20039;-60
2022/01/29 09:22:14;;;;;;;9.63;5.00;;;;;;;;;;5145917;27;20206;-60
2022/01/29 09:24:40;;;;;;;10.45;5.38;;;;;;;;;;5141608;27;20073;-60
2022/01/29 09:27:07;;;;;;;11.63;5.00;;;;;;;;;;5149696;27;20064;-60
2022/01/29 09:29:33;;;;;;;10.20;4.45;;;;;;;;;;5157722;27;20073;-60
2022/01/29 09:31:59;;;;;;;13.15;5.43;;;;;;;;;;5145079;27;20047;-60
2022/01/29 09:34:25;;;;;;;14.10;5.78;;;;;;;;;;5149094;27;20090;-59
2022/01/29 09:36:51;;;;;;;15.38;4.45;;;;;;;;;;5145167;27;20360;-59
2022/01/29 09:39:17;;;;;;;11.68;4.47;;;;;;;;;;5144779;27;20192;-59
2022/01/29 09:41:45;;;;;;;12.43;5.25;;;;;;;;;;5144295;27;20103;-59
2022/01/29 09:44:12;;;;;;;9.05;4.47;;;;;;;;;;5145208;27;20079;-59
2022/01/29 09:46:38;;;;;;;9.03;3.83;;;;;;;;;;5146060;27;20047;-59
2022/01/29 09:49:04;;;;;;;14.40;5.00;;;;;;;;;;5149032;27;20043;-59
2022/01/29 09:51:31;;;;;;;14.00;5.10;;;;;;;;;;5144270;27;20086;-59
2022/01/29 09:53:57;;;;;;;7.53;3.33;;;;;;;;;;5146434;27;20102;-59
2022/01/29 09:56:23;;;;;;;11.40;3.72;;;;;;;;;;5148480;27;20035;-59
2022/01/29 09:58:50;;;;;;;11.57;4.22;;;;;;;;;;5147595;27;20267;-59
2022/01/29 10:01:16;;;;;;;9.98;3.70;;;;;;;;;;5159402;27;20103;-59
2022/01/29 10:03:42;;;;;;;13.85;3.40;;;;;;;;;;5148613;27;20085;-59
2022/01/29 10:06:19;;;;;;;9.93;3.53;;;;;;;;;;5150512;27;20107;-59
2022/01/29 10:08:45;;;;;;;7.13;3.78;;;;;;;;;;5144453;27;20120;-59
2022/01/29 10:11:22;;;;;;;16.90;3.55;;;;;;;;;;5145157;27;20106;-60
2022/01/29 10:13:49;;;;;;;13.45;3.17;;;;;;;;;;5145374;27;20045;-61
2022/01/29 10:16:15;;;;;;;8.20;3.72;;;;;;;;;;5165965;27;20115;-60
2022/01/29 10:18:47;;;;;;;12.93;3.78;;;;;;;;;;5146326;27;20569;-60
2022/01/29 10:21:17;;;;;;;10.93;2.88;;;;;;;;;;5153181;27;20042;-59
2022/01/29 10:23:45;;;;;;;8.23;2.65;;;;;;;;;;5153803;27;21624;-59
2022/01/29 10:26:25;;;;;;;7.35;2.90;;;;;;;;;;5153084;27;20059;-61
2022/01/29 10:28:53;;;;;;;8.65;2.83;;;;;;;;;;5133395;28;20842;-60
2022/01/29 10:31:20;;;;;;;11.23;2.80;;;;;;;;;;5149458;27;20039;-61
2022/01/29 10:33:46;;;;;;;9.20;2.85;;;;;;;;;;5148628;27;20085;-61
2022/01/29 10:36:16;;;;;;;10.35;2.60;;;;;;;;;;5151305;27;20039;-59
2022/01/29 10:38:42;;;;;;;9.75;2.40;;;;;;;;;;5145193;27;20043;-60
2022/01/29 10:41:19;;;;;;;12.00;3.45;;;;;;;;;;5139196;27;20772;-63
2022/01/29 10:43:54;;;;;;;9.73;2.20;;;;;;;;;;5141863;27;20043;-63
2022/01/29 10:46:30;;;;;;;6.57;2.45;;;;;;;;;;5145383;27;20043;-62
2022/01/29 10:49:00;;;;;;;7.10;2.05;;;;;;;;;;5138473;27;20083;-63
2022/01/29 10:51:26;;;;;;;9.43;2.70;;;;;;;;;;5142807;28;20043;-62
2022/01/29 10:53:53;;;;;;;10.60;2.75;;;;;;;;;;5144465;27;20074;-64
2022/01/29 10:56:20;;;;;;;9.70;2.28;;;;;;;;;;5141521;27;20047;-59
2022/01/29 10:58:50;;;;;;;11.45;2.80;;;;;;;;;;5136238;27;20043;-59
2022/01/29 11:01:23;;;;;;;11.75;2.53;;;;;;;;;;5143100;27;20537;-59
2022/01/29 11:03:55;;;;;;;5.68;2.40;;;;;;;;;;5140825;27;20058;-60
2022/01/29 11:06:28;;;;;;;9.68;2.50;;;;;;;;;;5142980;27;20051;-59
2022/01/29 11:08:55;;;;;;;7.47;2.10;;;;;;;;;;5137225;27;20039;-60
2022/01/29 11:11:21;;;;;;;15.10;2.28;;;;;;;;;;5140591;27;20065;-60
2022/01/29 11:13:48;;;;;;;6.03;2.00;;;;;;;;;;5134218;27;20039;-59
2022/01/29 11:16:14;;;;;;;7.95;2.33;;;;;;;;;;5138921;27;20047;-59
2022/01/29 11:18:40;;;;;;;6.28;2.00;;;;;;;;;;5140443;27;20047;-59
2022/01/29 11:21:07;;;;;;;9.98;3.13;;;;;;;;;;5149674;27;20095;-60
2022/01/29 11:23:33;;;;;;;12.00;2.97;;;;;;;;;;5146032;27;20102;-59
2022/01/29 11:26:00;;;;;;;13.15;2.30;;;;;;;;;;5145395;27;20043;-59
2022/01/29 11:28:27;;;;;;;8.13;2.40;;;;;;;;;;5141393;27;20035;-60
2022/01/29 11:31:15;;;;;;;5.65;1.92;;;;;;;;;;5142193;27;20043;-60
2022/01/29 11:34:16;;;;;;;13.10;2.42;;;;;;;;;;5137103;27;20135;-59
2022/01/29 11:36:48;;;;;;;10.52;3.00;;;;;;;;;;5088331;28;20048;-60
2022/01/29 11:39:21;;;;;;;7.25;2.05;;;;;;;;;;5098646;28;20618;-59
2022/01/29 11:42:07;;;;;;;11.50;2.30;;;;;;;;;;5104073;28;20036;-60
2022/01/29 11:44:33;;;;;;;9.75;2.10;;;;;;;;;;5103397;28;20048;-59
2022/01/29 11:47:19;;;;;;;10.48;2.70;;;;;;;;;;5103788;28;20059;-60
2022/01/29 11:49:45;;;;;;;7.40;1.70;;;;;;;;;;5104073;28;20068;-60
2022/01/29 11:52:24;;;;;;;11.25;2.65;;;;;;;;;;5104089;28;20108;-60
2022/01/29 11:55:01;;;;;;;15.48;3.05;;;;;;;;;;5112522;28;20052;-60
2022/01/29 11:57:27;;;;;;;9.45;2.45;;;;;;;;;;5100060;28;20040;-60
2022/01/29 11:59:54;;;;;;;10.43;2.00;;;;;;;;;;5102025;28;20104;-60
2022/01/29 12:02:20;;;;;;;10.63;2.00;;;;;;;;;;5102768;28;20099;-60
2022/01/29 12:04:49;;;;;;;6.75;1.65;;;;;;;;;;5096278;28;20048;-60
2022/01/29 12:07:37;;;;;;;7.22;2.25;;;;;;;;;;5103104;28;20543;-60
2022/01/29 12:10:12;;;;;;;12.38;2.35;;;;;;;;;;5113154;27;20047;-60
2022/01/29 12:12:42;;;;;;;13.02;2.05;;;;;;;;;;5142611;27;20047;-59
2022/01/29 12:15:11;;;;;;;6.28;2.22;;;;;;;;;;5144758;27;20063;-60
2022/01/29 12:17:41;;;;;;;10.63;1.73;;;;;;;;;;5145555;27;20117;-60
2022/01/29 12:20:08;;;;;;;9.23;1.80;;;;;;;;;;5146544;27;20035;-60
2022/01/29 12:22:36;;;;;;;8.73;2.05;;;;;;;;;;5139910;27;20107;-60
2022/01/29 12:25:03;;;;;;;9.15;1.90;;;;;;;;;;5135680;27;20079;-60
2022/01/29 12:27:42;;;;;;;9.68;2.17;;;;;;;;;;5158568;27;20035;-60
2022/01/29 12:30:09;;;;;;;8.50;2.00;;;;;;;;;;5138206;27;20043;-60
2022/01/29 12:32:35;;;;;;;9.30;2.75;;;;;;;;;;5142939;27;20046;-58
2022/01/29 12:35:03;;;;;;;10.75;2.17;;;;;;;;;;5139742;27;20044;-60
2022/01/29 12:37:30;;;;;;;10.15;2.20;;;;;;;;;;5143691;27;20060;-60
2022/01/29 12:40:06;;;;;;;8.05;1.85;;;;;;;;;;5141995;27;20035;-60
2022/01/29 12:42:43;;;;;;;7.40;2.10;;;;;;;;;;5134568;27;20053;-60
2022/01/29 12:45:10;;;;;;;14.50;3.37;;;;;;;;;;5136577;27;20039;-60
2022/01/29 12:47:36;;;;;;;8.75;1.85;;;;;;;;;;5140443;27;20300;-60
2022/01/29 12:50:03;;;;;;;9.18;2.20;;;;;;;;;;5142198;27;20087;-59
2022/01/29 12:52:30;;;;;;;12.43;2.20;;;;;;;;;;5143235;27;20233;-59
2022/01/29 12:54:58;;;;;;;5.97;1.98;;;;;;;;;;5144812;27;20047;-59
2022/01/29 12:57:24;;;;;;;10.05;1.83;;;;;;;;;;5133934;27;20422;-59
2022/01/29 12:59:50;;;;;;;10.73;2.00;;;;;;;;;;5141127;27;20051;-61
2022/01/29 13:02:17;;;;;;;7.47;2.17;;;;;;;;;;5144750;27;20039;-61
2022/01/29 13:04:46;;;;;;;6.55;2.67;;;;;;;;;;5145850;27;20909;-61
2022/01/29 13:07:12;;;;;;;9.63;2.03;;;;;;;;;;5144446;27;20043;-61
2022/01/29 13:09:38;;;;;;;8.43;2.00;;;;;;;;;;5143655;27;20043;-59
2022/01/29 13:12:10;;;;;;;11.85;2.17;;;;;;;;;;5145151;27;20039;-61
2022/01/29 13:14:36;;;;;;;12.32;2.35;;;;;;;;;;5136140;27;20039;-59
2022/01/29 13:17:04;;;;;;;12.35;2.70;;;;;;;;;;5145159;27;20471;-61
2022/01/29 13:19:31;;;;;;;6.20;2.50;;;;;;;;;;5145342;27;20486;-61
2022/01/29 13:22:01;;;;;;;10.52;2.10;;;;;;;;;;5143286;27;20483;-60
2022/01/29 13:24:29;;;;;;;10.23;1.95;;;;;;;;;;5141845;27;20495;-61
2022/01/29 13:27:09;;;;;;;10.88;1.70;;;;;;;;;;5144895;27;20051;-60
2022/01/29 13:29:55;;;;;;;6.35;1.45;;;;;;;;;;5144873;27;20051;-60
2022/01/29 13:32:28;;;;;;;11.63;1.83;;;;;;;;;;5144730;27;20047;-60
2022/01/29 13:34:55;;;;;;;11.45;1.92;;;;;;;;;;5143956;27;20036;-60
2022/01/29 13:37:27;;;;;;;4.15;1.85;;;;;;;;;;5144576;27;20066;-60
2022/01/29 13:39:53;;;;;;;8.10;2.50;;;;;;;;;;5145280;27;20047;-61
2022/01/29 13:42:20;;;;;;;7.75;2.33;;;;;;;;;;5146836;27;20070;-60
2022/01/29 13:45:02;;;;;;;10.85;1.95;;;;;;;;;;5144315;27;20035;-60
2022/01/29 13:47:28;;;;;;;8.48;2.38;;;;;;;;;;5142098;27;20047;-60
2022/01/29 13:49:54;;;;;;;10.20;2.63;;;;;;;;;;5144400;27;20110;-60
2022/01/29 13:52:23;;;;;;;8.15;2.10;;;;;;;;;;5144426;27;20058;-60
2022/01/29 13:54:52;;;;;;;15.45;3.05;;;;;;;;;;5144518;27;20039;-60
2022/01/29 13:57:20;;;;;;;8.30;2.00;;;;;;;;;;5144933;27;20078;-60
2022/01/29 13:59:59;;;;;;;10.15;2.28;;;;;;;;;;5144677;27;20085;-60
2022/01/29 14:02:25;;;;;;;6.53;1.60;;;;;;;;;;5142839;27;20035;-60
2022/01/29 14:05:01;;;;;;;7.57;1.80;;;;;;;;;;5144286;27;20035;-60
2022/01/29 14:07:30;;;;;;;10.30;2.55;;;;;;;;;;5155561;27;20047;-61
2022/01/29 14:10:00;;;;;;;6.38;1.52;;;;;;;;;;5155747;27;20102;-61
2022/01/29 14:12:28;;;;;;;9.05;2.53;;;;;;;;;;5144442;27;20047;-60
2022/01/29 14:14:59;;;;;;;5.30;1.38;;;;;;;;;;5139277;27;20043;-61
2022/01/29 14:17:30;;;;;;;15.48;2.13;;;;;;;;;;5125128;28;20046;-61
2022/01/29 14:19:58;;;;;;;9.77;2.22;;;;;;;;;;5132445;27;20072;-60
2022/01/29 14:22:26;;;;;;;10.45;2.45;;;;;;;;;;5144184;27;20611;-61
2022/01/29 14:24:52;;;;;;;11.50;2.53;;;;;;;;;;5144287;27;20043;-60
2022/01/29 14:27:18;;;;;;;13.98;2.03;;;;;;;;;;5135374;27;20036;-60
2022/01/29 14:29:46;;;;;;;10.90;2.15;;;;;;;;;;5143240;27;20107;-60
2022/01/29 14:32:14;;;;;;;12.70;2.53;;;;;;;;;;5144180;27;20137;-60
2022/01/29 14:34:40;;;;;;;14.82;2.25;;;;;;;;;;5141896;27;20510;-60
2022/01/29 14:37:06;;;;;;;7.85;2.22;;;;;;;;;;5142364;27;20071;-60
2022/01/29 14:39:33;;;;;;;8.45;1.70;;;;;;;;;;5144943;27;20047;-60
2022/01/29 14:42:03;;;;;;;13.32;3.40;;;;;;;;;;5145201;27;20051;-61